createdAt,value
2019-06-07T00:00:59.882Z,3.20
2019-06-07T00:03:30.392Z,3.70
2019-06-07T00:06:01.362Z,3.40
2019-06-07T00:08:32.022Z,3.10
2019-06-07T00:11:01.715Z,3.60
2019-06-07T00:13:31.401Z,3.60
2019-06-07T00:16:01.112Z,3.30
2019-06-07T00:18:30.821Z,3.72
2019-06-07T00:21:00.533Z,3.30
2019-06-07T00:23:30.244Z,3.55
2019-06-07T00:25:59.952Z,3.22
2019-06-07T00:28:29.663Z,3.47
2019-06-07T00:30:59.344Z,3.87
2019-06-07T00:33:29.056Z,3.40
2019-06-07T00:35:59.787Z,3.62
2019-06-07T00:38:29.529Z,3.67
2019-06-07T00:40:59.236Z,3.45
2019-06-07T00:43:28.945Z,3.33
2019-06-07T00:45:58.656Z,3.95
2019-06-07T00:48:32.699Z,3.40
2019-06-07T00:50:59.589Z,3.43
2019-06-07T00:53:32.401Z,3.52
2019-06-07T00:56:00.569Z,3.73
2019-06-07T00:58:30.279Z,3.62
2019-06-07T01:01:00.013Z,3.62
2019-06-07T01:03:29.673Z,3.25
2019-06-07T01:05:59.379Z,3.98
2019-06-07T01:08:30.266Z,3.55
2019-06-07T01:11:00.059Z,3.55
2019-06-07T01:13:30.792Z,3.85
2019-06-07T01:16:01.444Z,3.77
2019-06-07T01:18:39.016Z,3.83
2019-06-07T01:21:02.356Z,3.53
2019-06-07T01:24:04.723Z,3.87
2019-06-07T01:26:03.337Z,3.90
2019-06-07T01:28:33.048Z,3.50
2019-06-07T01:31:03.678Z,3.67
2019-06-07T01:33:50.370Z,3.30
2019-06-07T01:36:04.607Z,3.50
2019-06-07T01:38:34.346Z,3.40
2019-06-07T01:41:04.028Z,3.37
2019-06-07T01:43:33.810Z,3.50
2019-06-07T01:46:03.579Z,3.60
2019-06-07T01:48:48.879Z,3.37
2019-06-07T01:51:05.253Z,3.53
2019-06-07T01:53:36.394Z,3.70
2019-06-07T01:56:06.105Z,3.45
2019-06-07T01:58:37.520Z,3.95
2019-06-07T02:01:07.137Z,3.80
2019-06-07T02:03:36.883Z,3.75
2019-06-07T02:06:06.585Z,3.77
2019-06-07T02:08:36.191Z,3.50
2019-06-07T02:11:05.904Z,3.75
2019-06-07T02:13:35.583Z,3.58
2019-06-07T02:16:05.409Z,3.98
2019-06-07T02:18:35.237Z,3.85
2019-06-07T02:21:05.924Z,3.52
2019-06-07T02:23:35.578Z,4.03
2019-06-07T02:26:05.289Z,4.30
2019-06-07T02:28:44.881Z,4.58
2019-06-07T02:31:08.087Z,4.00
2019-06-07T02:33:40.247Z,4.53
2019-06-07T02:36:09.121Z,4.53
2019-06-07T02:38:38.863Z,4.37
2019-06-07T02:41:10.378Z,4.20
2019-06-07T02:43:40.019Z,4.50
2019-06-07T02:46:35.377Z,4.50
2019-06-07T02:48:57.565Z,3.92
2019-06-07T02:51:32.734Z,4.47
2019-06-07T02:53:58.496Z,4.70
2019-06-07T02:56:42.160Z,5.10
2019-06-07T02:59:01.207Z,4.45
2019-06-07T03:01:38.117Z,5.60
2019-06-07T03:04:02.127Z,5.07
2019-06-07T03:06:36.330Z,5.00
2019-06-07T03:09:03.436Z,5.10
2019-06-07T03:11:36.059Z,5.80
2019-06-07T03:14:05.474Z,5.12
2019-06-07T03:16:44.421Z,5.30
2019-06-07T03:19:18.457Z,5.90
2019-06-07T03:21:48.166Z,5.78
2019-06-07T03:24:17.847Z,6.15
2019-06-07T03:27:32.105Z,6.15
2019-06-07T03:29:20.647Z,6.27
2019-06-07T03:31:50.295Z,7.57
2019-06-07T03:34:19.995Z,7.05
2019-06-07T03:36:49.676Z,6.12
2019-06-07T03:39:19.413Z,6.35
2019-06-07T03:42:05.160Z,6.08
2019-06-07T03:44:20.471Z,6.70
2019-06-07T03:46:50.183Z,6.50
2019-06-07T03:49:19.891Z,6.33
2019-06-07T03:51:49.602Z,7.25
2019-06-07T03:54:20.336Z,6.65
2019-06-07T03:56:50.047Z,6.97
2019-06-07T03:59:19.757Z,6.47
2019-06-07T04:01:49.466Z,7.17
2019-06-07T04:04:19.177Z,7.47
2019-06-07T04:06:48.783Z,7.08
2019-06-07T04:09:18.493Z,6.80
2019-06-07T04:11:48.206Z,6.92
2019-06-07T04:14:17.914Z,7.15
2019-06-07T04:16:47.626Z,6.85
2019-06-07T04:19:17.336Z,7.35
2019-06-07T04:21:47.045Z,6.55
2019-06-07T04:24:16.755Z,6.65
2019-06-07T04:26:46.828Z,7.15
2019-06-07T04:29:41.096Z,7.67
2019-06-07T04:32:07.185Z,7.62
2019-06-07T04:34:40.117Z,8.00
2019-06-07T04:37:08.096Z,6.80
2019-06-07T04:39:41.682Z,7.58
2019-06-07T04:42:09.709Z,7.67
2019-06-07T04:44:42.299Z,7.00
2019-06-07T04:47:10.658Z,7.30
2019-06-07T04:49:43.512Z,8.18
2019-06-07T04:52:12.026Z,7.75
2019-06-07T04:54:45.745Z,7.03
2019-06-07T04:57:13.084Z,7.47
2019-06-07T05:00:10.925Z,7.45
2019-06-07T05:02:14.036Z,7.85
2019-06-07T05:04:43.988Z,7.45
2019-06-07T05:07:14.936Z,7.70
2019-06-07T05:09:44.600Z,7.87
2019-06-07T05:12:14.224Z,7.33
2019-06-07T05:14:45.752Z,7.92
2019-06-07T05:17:15.374Z,7.58
2019-06-07T05:19:45.081Z,8.20
2019-06-07T05:22:14.795Z,7.33
2019-06-07T05:24:44.500Z,7.40
2019-06-07T05:27:14.210Z,7.42
2019-06-07T05:29:50.412Z,7.05
2019-06-07T05:32:15.246Z,7.27
2019-06-07T05:34:47.432Z,6.75
2019-06-07T05:37:16.230Z,7.13
2019-06-07T05:39:46.673Z,7.12
2019-06-07T05:42:16.670Z,7.55
2019-06-07T05:44:46.314Z,7.37
2019-06-07T05:47:15.996Z,7.53
2019-06-07T05:49:47.197Z,8.60
2019-06-07T05:52:16.953Z,8.20
2019-06-07T05:54:47.106Z,7.62
2019-06-07T05:57:17.873Z,6.63
2019-06-07T05:59:47.868Z,7.37
2019-06-07T06:02:22.755Z,7.33
2019-06-07T06:04:49.592Z,7.58
2019-06-07T06:07:20.349Z,7.95
2019-06-07T06:09:51.160Z,8.60
2019-06-07T06:12:34.848Z,7.75
2019-06-07T06:14:52.219Z,7.47
2019-06-07T06:17:23.658Z,8.65
2019-06-07T06:19:53.668Z,8.17
2019-06-07T06:22:24.421Z,8.00
2019-06-07T06:25:30.110Z,8.05
2019-06-07T06:29:56.726Z,7.47
2019-06-07T06:32:50.965Z,7.92
2019-06-07T06:34:57.761Z,8.73
2019-06-07T06:37:27.495Z,7.37
2019-06-07T06:39:57.207Z,7.80
2019-06-07T06:42:26.812Z,7.55
2019-06-07T06:44:59.304Z,7.97
2019-06-07T06:47:28.999Z,8.28
2019-06-07T06:49:58.682Z,7.85
2019-06-07T06:52:28.317Z,8.80
2019-06-07T06:55:00.893Z,8.15
2019-06-07T06:57:29.374Z,8.27
2019-06-07T06:59:59.084Z,8.28
2019-06-07T07:02:29.771Z,8.85
2019-06-07T07:04:59.503Z,8.53
2019-06-07T07:07:29.291Z,8.20
2019-06-07T07:10:00.085Z,8.08
2019-06-07T07:12:30.168Z,8.35
2019-06-07T07:14:59.912Z,8.25
2019-06-07T07:17:47.804Z,8.63
2019-06-07T07:20:02.698Z,8.23
2019-06-07T07:22:32.418Z,7.72
2019-06-07T07:25:02.024Z,8.45
2019-06-07T07:27:31.734Z,7.40
2019-06-07T07:30:34.927Z,8.05
2019-06-07T07:32:32.793Z,8.00
2019-06-07T07:35:02.486Z,7.00
2019-06-07T07:37:32.213Z,7.58
2019-06-07T07:40:54.912Z,7.42
2019-06-07T07:42:33.243Z,7.83
2019-06-07T07:45:02.852Z,7.45
2019-06-07T07:47:33.000Z,7.10
2019-06-07T07:50:02.606Z,7.45
2019-06-07T07:52:32.315Z,7.25
2019-06-07T07:55:02.000Z,6.65
2019-06-07T07:57:31.913Z,7.00
2019-06-07T08:00:48.104Z,7.62
2019-06-07T08:02:33.921Z,6.62
2019-06-07T08:05:21.713Z,8.30
2019-06-07T08:07:37.177Z,7.12
2019-06-07T08:10:07.559Z,7.05
2019-06-07T08:13:00.502Z,7.40
2019-06-07T08:15:08.621Z,6.22
2019-06-07T08:17:38.326Z,6.60
2019-06-07T08:20:09.574Z,6.25
2019-06-07T08:22:39.282Z,5.90
2019-06-07T08:25:08.968Z,5.35
2019-06-07T08:27:38.702Z,5.03
2019-06-07T08:30:46.523Z,5.33
2019-06-07T08:32:42.935Z,5.80
2019-06-07T08:36:01.024Z,5.72
2019-06-07T08:38:14.644Z,5.77
2019-06-07T08:40:15.551Z,6.20
2019-06-07T08:43:03.339Z,5.37
2019-06-07T08:45:17.732Z,5.83
2019-06-07T08:47:47.443Z,6.28
2019-06-07T08:50:17.151Z,6.72
2019-06-07T08:52:46.865Z,6.05
2019-06-07T08:55:16.497Z,5.78
2019-06-07T08:57:46.181Z,5.58
2019-06-07T09:00:43.031Z,5.92
2019-06-07T09:02:47.135Z,5.53
2019-06-07T09:05:17.849Z,6.78
2019-06-07T09:07:47.479Z,5.58
2019-06-07T09:10:17.187Z,5.87
2019-06-07T09:12:46.898Z,5.10
2019-06-07T09:15:23.448Z,5.12
2019-06-07T09:18:30.266Z,5.40
2019-06-07T09:20:35.808Z,4.42
2019-06-07T09:22:52.295Z,4.97
2019-06-07T09:25:22.065Z,5.20
2019-06-07T09:27:51.888Z,4.53
2019-06-07T09:30:39.650Z,6.37
2019-06-07T09:33:09.871Z,5.20
2019-06-07T09:35:39.785Z,4.95
2019-06-07T09:38:23.211Z,5.00
2019-06-07T09:40:42.667Z,6.62
2019-06-07T09:44:00.123Z,5.13
2019-06-07T09:45:43.338Z,5.50
2019-06-07T09:48:16.402Z,6.17
2019-06-07T09:50:44.293Z,5.55
2019-06-07T09:53:34.790Z,5.95
2019-06-07T09:56:08.666Z,5.72
2019-06-07T09:58:53.753Z,5.58
2019-06-07T10:01:12.581Z,7.20
2019-06-07T10:03:38.443Z,5.97
2019-06-07T10:06:13.197Z,5.72
2019-06-07T10:09:57.087Z,5.47
2019-06-07T10:11:12.396Z,5.35
2019-06-07T10:13:42.096Z,4.80
2019-06-07T10:16:11.705Z,5.60
2019-06-07T10:18:41.418Z,7.05
2019-06-07T10:21:14.955Z,5.72
2019-06-07T10:23:42.475Z,5.17
2019-06-07T10:26:12.049Z,5.97
2019-06-07T10:28:41.791Z,6.08
2019-06-07T10:31:12.425Z,7.05
2019-06-07T10:33:43.133Z,5.83
2019-06-07T10:36:12.764Z,5.75
2019-06-07T10:38:42.475Z,5.53
2019-06-07T10:41:12.159Z,6.20
2019-06-07T10:43:42.969Z,6.62
2019-06-07T10:46:12.595Z,6.75
2019-06-07T10:48:42.317Z,6.00
2019-06-07T10:51:14.844Z,5.85
2019-06-07T10:53:44.295Z,5.65
2019-06-07T10:56:14.035Z,6.30
2019-06-07T10:58:44.648Z,5.40
2019-06-07T11:01:14.551Z,4.87
2019-06-07T11:03:44.490Z,4.85
2019-06-07T11:06:14.411Z,6.33
2019-06-07T11:08:45.997Z,5.12
2019-06-07T11:11:15.639Z,5.53
2019-06-07T11:13:45.380Z,5.25
2019-06-07T11:16:15.655Z,4.40
2019-06-07T11:18:46.672Z,4.30
2019-06-07T11:21:16.355Z,4.60
2019-06-07T11:23:45.962Z,4.80
2019-06-07T11:26:15.670Z,4.45
2019-06-07T11:28:45.413Z,4.00
2019-06-07T11:31:15.252Z,4.17
2019-06-07T11:33:45.009Z,3.87
2019-06-07T11:36:15.680Z,4.50
2019-06-07T11:38:45.324Z,4.12
2019-06-07T11:41:15.867Z,4.37
2019-06-07T11:43:45.794Z,6.90
2019-06-07T11:46:17.225Z,3.62
2019-06-07T11:51:15.510Z,4.25
2019-06-07T11:53:45.249Z,3.90
2019-06-07T11:56:16.008Z,3.90
2019-06-07T11:58:45.897Z,4.10
2019-06-07T12:01:17.149Z,3.98
2019-06-07T12:03:46.954Z,3.77
2019-06-07T12:06:17.994Z,4.30
2019-06-07T12:08:48.013Z,4.10
2019-06-07T12:11:18.521Z,4.70
2019-06-07T12:13:50.156Z,6.20
2019-06-07T12:16:20.902Z,5.50
2019-06-07T12:18:50.744Z,5.55
2019-06-07T12:21:20.354Z,5.40
2019-06-07T12:23:50.063Z,4.45
2019-06-07T12:26:20.674Z,4.20
2019-06-07T12:28:50.609Z,5.10
2019-06-07T12:31:21.196Z,4.42
2019-06-07T12:33:51.122Z,4.53
2019-06-07T12:36:22.061Z,5.55
2019-06-07T12:41:22.395Z,4.85
2019-06-07T12:43:52.149Z,3.42
2019-06-07T12:46:27.960Z,4.22
2019-06-07T12:48:53.102Z,3.77
2019-06-07T12:51:23.495Z,4.20
2019-06-07T12:53:53.315Z,3.85
2019-06-07T12:56:24.250Z,3.92
2019-06-07T12:58:54.094Z,4.00
2019-06-07T13:01:24.847Z,4.00
2019-06-07T13:03:54.646Z,3.87
2019-06-07T13:06:26.277Z,3.75
2019-06-07T13:08:55.596Z,3.40
2019-06-07T13:11:29.611Z,4.25
2019-06-07T13:13:56.552Z,3.55
2019-06-07T13:16:26.305Z,4.08
2019-06-07T13:18:55.979Z,3.58
2019-06-07T13:21:25.683Z,4.60
2019-06-07T13:23:55.395Z,4.45
2019-06-07T13:26:25.143Z,3.58
2019-06-07T13:28:55.845Z,3.55
2019-06-07T13:31:25.547Z,3.75
2019-06-07T13:33:55.259Z,3.53
2019-06-07T13:36:24.963Z,3.52
2019-06-07T13:38:55.496Z,3.65
2019-06-07T13:41:36.795Z,3.37
2019-06-07T13:43:57.479Z,3.10
2019-06-07T13:46:28.192Z,3.45
2019-06-07T13:48:58.053Z,3.67
2019-06-07T13:51:28.929Z,3.60
2019-06-07T13:53:58.854Z,3.70
2019-06-07T13:56:28.493Z,3.70
2019-06-07T13:58:58.198Z,3.83
2019-06-07T14:01:29.037Z,3.85
2019-06-07T14:03:58.928Z,3.90
2019-06-07T14:06:30.033Z,3.37
2019-06-07T14:09:00.079Z,3.50
2019-06-07T14:11:31.623Z,3.72
2019-06-07T14:14:01.168Z,3.30
2019-06-07T14:16:31.900Z,3.55
2019-06-07T14:19:01.614Z,3.95
2019-06-07T14:21:31.422Z,3.58
2019-06-07T14:24:01.137Z,3.17
2019-06-07T14:26:32.552Z,3.27
2019-06-07T14:29:02.098Z,2.70
2019-06-07T14:31:32.238Z,3.40
2019-06-07T14:34:02.629Z,3.30
2019-06-07T14:36:33.285Z,3.10
2019-06-07T14:39:03.269Z,3.50
2019-06-07T14:41:33.656Z,3.08
2019-06-07T14:44:05.495Z,3.15
2019-06-07T14:46:34.873Z,3.47
2019-06-07T14:49:04.582Z,3.40
2019-06-07T14:51:35.379Z,2.87
2019-06-07T14:54:05.203Z,3.40
2019-06-07T14:56:35.296Z,3.40
2019-06-07T14:59:05.245Z,2.90
2019-06-07T15:01:35.663Z,2.90
2019-06-07T15:04:06.576Z,3.30
2019-06-07T15:06:36.342Z,3.27
2019-06-07T15:09:07.424Z,3.20
2019-06-07T15:11:37.268Z,3.37
2019-06-07T15:14:07.890Z,3.05
2019-06-07T15:16:37.967Z,3.15
2019-06-07T15:19:07.865Z,3.08
2019-06-07T15:21:37.487Z,2.80
2019-06-07T15:24:07.095Z,2.72
2019-06-07T15:26:36.759Z,3.08
2019-06-07T15:29:08.332Z,3.65
2019-06-07T15:31:38.674Z,3.10
2019-06-07T15:34:09.610Z,3.15
2019-06-07T15:36:39.195Z,3.20
2019-06-07T15:39:10.665Z,3.60
2019-06-07T15:41:40.283Z,3.27
2019-06-07T15:44:11.761Z,3.15
2019-06-07T15:46:42.466Z,3.30
2019-06-07T15:49:12.152Z,3.40
2019-06-07T15:51:41.884Z,3.47
2019-06-07T15:54:11.588Z,3.33
2019-06-07T15:56:41.488Z,3.45
2019-06-07T15:59:21.948Z,3.35
2019-06-07T16:01:51.685Z,3.83
2019-06-07T16:04:21.393Z,3.60
2019-06-07T16:06:51.103Z,3.60
2019-06-07T16:09:20.825Z,3.50
2019-06-07T16:11:50.626Z,3.72
2019-06-07T16:14:20.335Z,3.72
2019-06-07T16:16:50.121Z,3.40
2019-06-07T16:19:19.871Z,3.83
2019-06-07T16:21:49.568Z,3.50
2019-06-07T16:24:19.284Z,4.25
2019-06-07T16:26:48.990Z,4.10
2019-06-07T16:29:18.640Z,4.05
2019-06-07T16:31:48.385Z,3.72
2019-06-07T16:34:18.092Z,3.58
2019-06-07T16:36:48.816Z,3.92
2019-06-07T16:39:18.609Z,3.95
2019-06-07T16:41:48.920Z,3.42
2019-06-07T16:44:18.802Z,3.75
2019-06-07T16:46:49.113Z,3.65
2019-06-07T16:49:18.789Z,3.55
2019-06-07T16:51:49.510Z,3.62
2019-06-07T16:54:19.280Z,3.60
2019-06-07T16:56:51.225Z,3.85
2019-06-07T16:59:20.239Z,3.40
2019-06-07T17:01:50.029Z,3.42
2019-06-07T17:04:19.766Z,4.00
2019-06-07T17:06:49.473Z,3.52
2019-06-07T17:09:19.179Z,3.70
2019-06-07T17:11:48.893Z,3.87
2019-06-07T17:14:18.571Z,3.92
2019-06-07T17:16:50.057Z,3.80
2019-06-07T17:19:19.681Z,3.77
2019-06-07T17:21:49.629Z,3.72
2019-06-07T17:24:19.460Z,3.70
2019-06-07T17:26:50.567Z,4.28
2019-06-07T17:29:20.322Z,3.60
2019-06-07T17:31:50.400Z,3.83
2019-06-07T17:34:20.274Z,3.77
2019-06-07T17:36:50.716Z,3.85
2019-06-07T17:39:20.723Z,4.00
2019-06-07T17:41:59.962Z,4.55
2019-06-07T17:44:21.777Z,4.03
2019-06-07T17:46:51.836Z,3.80
2019-06-07T17:49:29.131Z,4.55
2019-06-07T17:51:58.793Z,4.08
2019-06-07T17:54:29.471Z,4.80
2019-06-07T17:57:00.965Z,4.35
2019-06-07T17:59:31.687Z,4.00
2019-06-07T18:02:14.323Z,4.42
2019-06-07T18:04:32.671Z,4.15
2019-06-07T18:07:03.304Z,4.72
2019-06-07T18:09:33.009Z,4.78
2019-06-07T18:12:02.719Z,4.42
2019-06-07T18:14:32.406Z,4.72
2019-06-07T18:17:02.140Z,4.30
2019-06-07T18:19:31.850Z,4.50
2019-06-07T18:22:03.487Z,4.22
2019-06-07T18:24:32.907Z,4.08
2019-06-07T18:27:02.618Z,4.60
2019-06-07T18:29:32.299Z,5.20
2019-06-07T18:32:02.039Z,4.85
2019-06-07T18:34:31.748Z,4.50
2019-06-07T18:37:01.460Z,4.20
2019-06-07T18:39:31.168Z,4.67
2019-06-07T18:42:02.610Z,4.75
2019-06-07T18:44:32.201Z,7.08
2019-06-07T18:47:01.937Z,6.55
2019-06-07T18:49:31.620Z,5.47
2019-06-07T18:52:16.666Z,6.00
2019-06-07T18:54:46.778Z,5.90
2019-06-07T18:57:16.752Z,5.37
2019-06-07T18:59:46.441Z,4.87
2019-06-07T19:02:16.172Z,5.03
2019-06-07T19:04:47.965Z,5.00
2019-06-07T19:07:17.237Z,5.22
2019-06-07T19:09:46.944Z,5.30
2019-06-07T19:12:16.653Z,5.62
2019-06-07T19:14:46.367Z,5.37
2019-06-07T19:17:16.071Z,5.67
2019-06-07T19:19:45.784Z,6.55
2019-06-07T19:22:15.496Z,5.85
2019-06-07T19:24:45.205Z,6.62
2019-06-07T19:27:14.927Z,5.72
2019-06-07T19:29:45.624Z,5.22
2019-06-07T19:32:15.327Z,5.55
2019-06-07T19:34:44.966Z,5.30
2019-06-07T19:37:14.674Z,4.90
2019-06-07T19:39:44.357Z,5.35
2019-06-07T19:42:14.068Z,5.78
2019-06-07T19:44:53.194Z,5.30
2019-06-07T19:47:15.051Z,6.05
2019-06-07T19:49:44.738Z,5.70
2019-06-07T19:52:14.448Z,6.10
2019-06-07T19:54:44.182Z,6.30
2019-06-07T19:57:13.892Z,5.75
2019-06-07T19:59:44.625Z,5.80
2019-06-07T20:02:14.334Z,5.95
2019-06-07T20:04:44.045Z,5.85
2019-06-07T20:07:13.728Z,5.72
2019-06-07T20:09:43.476Z,6.67
2019-06-07T20:12:13.184Z,6.87
2019-06-07T20:14:42.887Z,7.53
2019-06-07T20:17:12.596Z,7.25
2019-06-07T20:19:42.308Z,7.10
2019-06-07T20:22:12.016Z,6.90
2019-06-07T20:24:41.700Z,7.42
2019-06-07T20:27:11.437Z,6.90
2019-06-07T20:29:42.093Z,6.97
2019-06-07T20:32:11.760Z,7.25
2019-06-07T20:34:44.710Z,6.78
2019-06-07T20:37:13.962Z,7.10
2019-06-07T20:39:43.672Z,7.33
2019-06-07T20:42:13.471Z,6.72
2019-06-07T20:44:44.338Z,8.80
2019-06-07T20:47:14.036Z,9.83
2019-06-07T20:49:43.744Z,7.60
2019-06-07T20:52:13.452Z,7.85
2019-06-07T20:54:43.162Z,6.97
2019-06-07T20:57:12.875Z,5.40
2019-06-07T20:59:42.582Z,5.65
2019-06-07T21:02:12.293Z,4.80
2019-06-07T21:04:42.003Z,5.25
2019-06-07T21:07:11.686Z,4.00
2019-06-07T21:09:41.426Z,3.70
2019-06-07T21:12:11.107Z,3.62
2019-06-07T21:14:40.842Z,3.90
2019-06-07T21:17:10.553Z,3.83
2019-06-07T21:19:40.277Z,3.60
2019-06-07T21:22:11.671Z,3.40
2019-06-07T21:24:41.321Z,2.70
2019-06-07T21:27:11.372Z,2.85
2019-06-07T21:29:41.152Z,2.65
2019-06-07T21:32:11.878Z,2.87
2019-06-07T21:34:41.494Z,1.82
2019-06-07T21:37:12.265Z,2.10
2019-06-07T21:39:42.243Z,1.75
2019-06-07T21:42:12.388Z,2.00
2019-06-07T21:44:48.499Z,2.00
2019-06-07T21:47:18.236Z,1.95
2019-06-07T21:49:47.990Z,1.45
2019-06-07T21:52:17.665Z,2.10
2019-06-07T21:54:47.414Z,1.52
2019-06-07T21:57:18.033Z,1.40
2019-06-07T21:59:47.745Z,1.52
2019-06-07T22:02:17.455Z,1.87
2019-06-07T22:04:47.166Z,2.00
2019-06-07T22:07:17.887Z,1.42
2019-06-07T22:09:47.611Z,1.65
2019-06-07T22:12:19.028Z,1.80
2019-06-07T22:14:50.674Z,1.45
2019-06-07T22:17:20.015Z,1.55
2019-06-07T22:19:49.735Z,1.50
2019-06-07T22:22:20.358Z,1.30
2019-06-07T22:24:50.085Z,1.67
2019-06-07T22:27:19.755Z,1.20
2019-06-07T22:29:49.461Z,1.10
2019-06-07T22:32:19.231Z,1.20
2019-06-07T22:34:49.112Z,1.02
2019-06-07T22:37:23.274Z,0.98
2019-06-07T22:39:50.143Z,0.90
2019-06-07T22:42:19.881Z,1.17
2019-06-07T22:44:49.591Z,0.70
2019-06-07T22:47:19.302Z,1.05
2019-06-07T22:49:48.984Z,1.22
2019-06-07T22:52:18.721Z,1.05
2019-06-07T22:54:48.533Z,1.02
2019-06-07T22:57:22.619Z,1.25
2019-06-07T22:59:53.469Z,0.85
2019-06-07T23:02:23.297Z,0.85
2019-06-07T23:04:53.007Z,0.72
2019-06-07T23:07:22.716Z,0.80
2019-06-07T23:09:52.404Z,0.90
2019-06-07T23:12:22.137Z,0.72
2019-06-07T23:14:53.537Z,1.05
2019-06-07T23:17:25.033Z,1.00
2019-06-07T23:19:54.748Z,0.90
2019-06-07T23:22:25.487Z,0.90
2019-06-07T23:24:55.094Z,1.42
2019-06-07T23:27:24.801Z,0.98
2019-06-07T23:29:54.512Z,0.80
2019-06-07T23:32:24.220Z,0.93
2019-06-07T23:34:53.939Z,1.25
2019-06-07T23:37:24.665Z,1.27
2019-06-07T23:39:56.098Z,0.93
2019-06-07T23:42:25.849Z,0.70
2019-06-07T23:44:55.511Z,1.27
2019-06-07T23:47:25.251Z,0.80
2019-06-07T23:49:54.927Z,1.22
2019-06-07T23:52:24.670Z,1.22
2019-06-07T23:54:54.276Z,1.17
2019-06-07T23:57:25.014Z,0.80
2019-06-07T23:59:54.717Z,0.93
